sensor_id;sensor_type;location;lat;lon;timestamp;P1;durP1;ratioP1;P2;durP2;ratioP2
3979;SDS011;2004;52.452;13.120;2023-04-24T00:00:04;5.43;;;4.90;;
3979;SDS011;2004;52.452;13.120;2023-04-24T00:07:55;6.23;;;4.57;;
3979;SDS011;2004;52.452;13.120;2023-04-24T00:15:46;6.40;;;4.50;;
3979;SDS011;2004;52.452;13.120;2023-04-24T00:23:38;5.40;;;4.90;;
3979;SDS011;2004;52.452;13.120;2023-04-24T00:31:28;5.77;;;4.97;;
3979;SDS011;2004;52.452;13.120;2023-04-24T00:39:19;6.90;;;5.33;;
3979;SDS011;2004;52.452;13.120;2023-04-24T00:47:10;8.50;;;5.60;;
3979;SDS011;2004;52.452;13.120;2023-04-24T00:55:01;7.00;;;5.83;;
3979;SDS011;2004;52.452;13.120;2023-04-24T01:02:52;8.27;;;5.70;;
3979;SDS011;2004;52.452;13.120;2023-04-24T01:10:43;8.90;;;6.37;;
3979;SDS011;2004;52.452;13.120;2023-04-24T01:18:34;10.17;;;6.63;;
3979;SDS011;2004;52.452;13.120;2023-04-24T01:26:25;11.00;;;6.30;;
3979;SDS011;2004;52.452;13.120;2023-04-24T01:34:15;8.47;;;7.30;;
3979;SDS011;2004;52.452;13.120;2023-04-24T01:42:07;11.87;;;6.97;;
3979;SDS011;2004;52.452;13.120;2023-04-24T01:49:57;7.57;;;6.50;;
3979;SDS011;2004;52.452;13.120;2023-04-24T01:57:49;7.83;;;6.70;;
3979;SDS011;2004;52.452;13.120;2023-04-24T02:05:45;13.50;;;7.00;;
3979;SDS011;2004;52.452;13.120;2023-04-24T02:13:35;9.73;;;7.30;;
3979;SDS011;2004;52.452;13.120;2023-04-24T02:21:26;7.17;;;5.37;;
3979;SDS011;2004;52.452;13.120;2023-04-24T02:29:17;7.80;;;7.00;;
3979;SDS011;2004;52.452;13.120;2023-04-24T02:37:08;8.33;;;6.60;;
3979;SDS011;2004;52.452;13.120;2023-04-24T02:44:58;8.23;;;7.40;;
3979;SDS011;2004;52.452;13.120;2023-04-24T02:52:49;6.90;;;5.73;;
3979;SDS011;2004;52.452;13.120;2023-04-24T03:00:39;8.10;;;7.30;;
3979;SDS011;2004;52.452;13.120;2023-04-24T03:08:31;9.13;;;6.77;;
3979;SDS011;2004;52.452;13.120;2023-04-24T03:16:23;7.73;;;6.33;;
3979;SDS011;2004;52.452;13.120;2023-04-24T03:24:14;10.13;;;7.40;;
3979;SDS011;2004;52.452;13.120;2023-04-24T03:32:04;9.00;;;6.40;;
3979;SDS011;2004;52.452;13.120;2023-04-24T03:39:55;6.63;;;5.87;;
3979;SDS011;2004;52.452;13.120;2023-04-24T03:47:45;12.97;;;6.33;;
3979;SDS011;2004;52.452;13.120;2023-04-24T03:55:36;8.63;;;6.13;;
3979;SDS011;2004;52.452;13.120;2023-04-24T04:03:26;7.00;;;6.20;;
3979;SDS011;2004;52.452;13.120;2023-04-24T04:11:17;11.30;;;6.53;;
3979;SDS011;2004;52.452;13.120;2023-04-24T04:19:09;8.13;;;6.40;;
3979;SDS011;2004;52.452;13.120;2023-04-24T04:26:59;7.17;;;6.23;;
3979;SDS011;2004;52.452;13.120;2023-04-24T04:34:50;5.77;;;5.17;;
3979;SDS011;2004;52.452;13.120;2023-04-24T04:42:43;5.37;;;4.93;;
3979;SDS011;2004;52.452;13.120;2023-04-24T04:50:35;5.73;;;4.93;;
3979;SDS011;2004;52.452;13.120;2023-04-24T04:58:26;7.63;;;5.07;;
3979;SDS011;2004;52.452;13.120;2023-04-24T05:06:16;7.03;;;4.27;;
3979;SDS011;2004;52.452;13.120;2023-04-24T05:14:07;8.00;;;3.80;;
3979;SDS011;2004;52.452;13.120;2023-04-24T05:21:57;4.27;;;3.90;;
3979;SDS011;2004;52.452;13.120;2023-04-24T05:29:48;4.10;;;3.50;;
3979;SDS011;2004;52.452;13.120;2023-04-24T05:37:39;5.17;;;2.90;;
3979;SDS011;2004;52.452;13.120;2023-04-24T05:45:31;4.83;;;2.27;;
3979;SDS011;2004;52.452;13.120;2023-04-24T05:53:21;2.20;;;2.00;;
3979;SDS011;2004;52.452;13.120;2023-04-24T06:01:12;2.60;;;2.33;;
3979;SDS011;2004;52.452;13.120;2023-04-24T06:09:04;4.20;;;1.90;;
3979;SDS011;2004;52.452;13.120;2023-04-24T06:16:55;1.70;;;1.50;;
3979;SDS011;2004;52.452;13.120;2023-04-24T06:24:45;2.60;;;1.40;;
3979;SDS011;2004;52.452;13.120;2023-04-24T06:32:38;5.80;;;1.00;;
3979;SDS011;2004;52.452;13.120;2023-04-24T06:40:29;4.73;;;1.03;;
3979;SDS011;2004;52.452;13.120;2023-04-24T06:48:20;1.63;;;1.10;;
3979;SDS011;2004;52.452;13.120;2023-04-24T06:56:11;1.07;;;0.97;;
3979;SDS011;2004;52.452;13.120;2023-04-24T07:04:02;7.40;;;1.80;;
3979;SDS011;2004;52.452;13.120;2023-04-24T07:11:53;2.50;;;1.00;;
3979;SDS011;2004;52.452;13.120;2023-04-24T07:19:43;1.90;;;0.80;;
3979;SDS011;2004;52.452;13.120;2023-04-24T07:27:34;1.57;;;0.87;;
3979;SDS011;2004;52.452;13.120;2023-04-24T07:35:26;2.40;;;0.80;;
3979;SDS011;2004;52.452;13.120;2023-04-24T07:43:19;1.93;;;1.00;;
3979;SDS011;2004;52.452;13.120;2023-04-24T07:51:11;0.80;;;0.80;;
3979;SDS011;2004;52.452;13.120;2023-04-24T07:59:03;2.00;;;0.90;;
3979;SDS011;2004;52.452;13.120;2023-04-24T08:06:53;0.70;;;0.70;;
3979;SDS011;2004;52.452;13.120;2023-04-24T08:14:45;2.33;;;0.73;;
3979;SDS011;2004;52.452;13.120;2023-04-24T08:22:36;1.40;;;0.70;;
3979;SDS011;2004;52.452;13.120;2023-04-24T08:30:26;1.47;;;1.00;;
3979;SDS011;2004;52.452;13.120;2023-04-24T08:38:18;1.10;;;0.87;;
3979;SDS011;2004;52.452;13.120;2023-04-24T08:46:08;0.80;;;0.80;;
3979;SDS011;2004;52.452;13.120;2023-04-24T08:54:00;3.17;;;0.80;;
3979;SDS011;2004;52.452;13.120;2023-04-24T09:01:52;1.70;;;0.97;;
3979;SDS011;2004;52.452;13.120;2023-04-24T09:09:44;2.40;;;0.90;;
3979;SDS011;2004;52.452;13.120;2023-04-24T09:17:35;2.73;;;0.80;;
3979;SDS011;2004;52.452;13.120;2023-04-24T09:25:32;1.37;;;0.87;;
3979;SDS011;2004;52.452;13.120;2023-04-24T09:33:25;1.90;;;1.70;;
3979;SDS011;2004;52.452;13.120;2023-04-24T09:41:16;1.33;;;0.90;;
3979;SDS011;2004;52.452;13.120;2023-04-24T09:49:11;1.23;;;0.80;;
3979;SDS011;2004;52.452;13.120;2023-04-24T09:57:03;0.80;;;0.80;;
3979;SDS011;2004;52.452;13.120;2023-04-24T10:04:55;0.70;;;0.70;;
3979;SDS011;2004;52.452;13.120;2023-04-24T10:12:51;1.00;;;0.80;;
3979;SDS011;2004;52.452;13.120;2023-04-24T10:20:42;1.00;;;0.90;;
3979;SDS011;2004;52.452;13.120;2023-04-24T10:28:32;3.27;;;0.80;;
3979;SDS011;2004;52.452;13.120;2023-04-24T10:36:25;1.53;;;1.30;;
3979;SDS011;2004;52.452;13.120;2023-04-24T10:44:18;3.20;;;1.47;;
3979;SDS011;2004;52.452;13.120;2023-04-24T10:52:13;1.20;;;0.70;;
3979;SDS011;2004;52.452;13.120;2023-04-24T11:00:20;0.70;;;0.70;;
3979;SDS011;2004;52.452;13.120;2023-04-24T11:08:12;0.60;;;0.60;;
3979;SDS011;2004;52.452;13.120;2023-04-24T11:24:25;3.53;;;0.90;;
3979;SDS011;2004;52.452;13.120;2023-04-24T11:32:24;3.40;;;1.20;;
3979;SDS011;2004;52.452;13.120;2023-04-24T11:40:24;0.70;;;0.70;;
3979;SDS011;2004;52.452;13.120;2023-04-24T11:48:19;0.60;;;0.60;;
3979;SDS011;2004;52.452;13.120;2023-04-24T11:56:10;1.03;;;0.70;;
3979;SDS011;2004;52.452;13.120;2023-04-24T12:04:01;3.37;;;1.27;;
3979;SDS011;2004;52.452;13.120;2023-04-24T12:11:55;2.60;;;0.90;;
3979;SDS011;2004;52.452;13.120;2023-04-24T12:19:50;0.93;;;0.80;;
3979;SDS011;2004;52.452;13.120;2023-04-24T12:27:41;1.47;;;0.70;;
3979;SDS011;2004;52.452;13.120;2023-04-24T12:35:35;1.23;;;0.70;;
3979;SDS011;2004;52.452;13.120;2023-04-24T12:43:25;1.23;;;0.67;;
3979;SDS011;2004;52.452;13.120;2023-04-24T12:51:16;1.00;;;0.80;;
3979;SDS011;2004;52.452;13.120;2023-04-24T12:59:07;1.30;;;0.87;;
3979;SDS011;2004;52.452;13.120;2023-04-24T13:06:58;4.63;;;0.97;;
3979;SDS011;2004;52.452;13.120;2023-04-24T13:14:48;4.40;;;1.00;;
3979;SDS011;2004;52.452;13.120;2023-04-24T13:22:39;1.17;;;0.90;;
3979;SDS011;2004;52.452;13.120;2023-04-24T13:30:31;1.27;;;1.00;;
3979;SDS011;2004;52.452;13.120;2023-04-24T13:38:23;1.83;;;1.10;;
3979;SDS011;2004;52.452;13.120;2023-04-24T13:46:13;0.73;;;0.73;;
3979;SDS011;2004;52.452;13.120;2023-04-24T13:54:04;1.63;;;0.70;;
3979;SDS011;2004;52.452;13.120;2023-04-24T14:01:54;6.70;;;1.07;;
3979;SDS011;2004;52.452;13.120;2023-04-24T14:09:45;2.77;;;0.80;;
3979;SDS011;2004;52.452;13.120;2023-04-24T14:17:36;1.93;;;1.03;;
3979;SDS011;2004;52.452;13.120;2023-04-24T14:25:26;2.03;;;0.87;;
3979;SDS011;2004;52.452;13.120;2023-04-24T14:33:17;1.10;;;0.90;;
3979;SDS011;2004;52.452;13.120;2023-04-24T14:41:08;0.80;;;0.80;;
3979;SDS011;2004;52.452;13.120;2023-04-24T14:48:59;1.80;;;1.10;;
3979;SDS011;2004;52.452;13.120;2023-04-24T14:56:49;2.10;;;1.10;;
3979;SDS011;2004;52.452;13.120;2023-04-24T15:04:40;2.80;;;1.20;;
3979;SDS011;2004;52.452;13.120;2023-04-24T15:12:31;1.17;;;1.00;;
3979;SDS011;2004;52.452;13.120;2023-04-24T15:20:22;2.40;;;1.10;;
3979;SDS011;2004;52.452;13.120;2023-04-24T15:28:12;1.10;;;0.80;;
3979;SDS011;2004;52.452;13.120;2023-04-24T15:36:03;2.67;;;1.50;;
3979;SDS011;2004;52.452;13.120;2023-04-24T15:43:54;1.57;;;1.00;;
3979;SDS011;2004;52.452;13.120;2023-04-24T15:51:45;2.67;;;1.67;;
3979;SDS011;2004;52.452;13.120;2023-04-24T15:59:35;2.30;;;1.13;;
3979;SDS011;2004;52.452;13.120;2023-04-24T16:07:26;1.77;;;1.20;;
3979;SDS011;2004;52.452;13.120;2023-04-24T16:15:16;1.10;;;1.10;;
3979;SDS011;2004;52.452;13.120;2023-04-24T16:23:07;1.20;;;1.20;;
3979;SDS011;2004;52.452;13.120;2023-04-24T16:30:57;1.43;;;1.33;;
3979;SDS011;2004;52.452;13.120;2023-04-24T16:38:48;1.73;;;0.90;;
3979;SDS011;2004;52.452;13.120;2023-04-24T16:46:39;0.93;;;0.93;;
3979;SDS011;2004;52.452;13.120;2023-04-24T16:54:29;1.63;;;1.53;;
3979;SDS011;2004;52.452;13.120;2023-04-24T17:02:23;1.67;;;1.57;;
3979;SDS011;2004;52.452;13.120;2023-04-24T17:10:14;0.80;;;0.80;;
3979;SDS011;2004;52.452;13.120;2023-04-24T17:18:05;0.90;;;0.90;;
3979;SDS011;2004;52.452;13.120;2023-04-24T17:25:57;1.13;;;1.13;;
3979;SDS011;2004;52.452;13.120;2023-04-24T17:33:47;2.90;;;0.87;;
3979;SDS011;2004;52.452;13.120;2023-04-24T17:41:38;2.60;;;1.40;;
3979;SDS011;2004;52.452;13.120;2023-04-24T17:49:28;0.90;;;0.90;;
3979;SDS011;2004;52.452;13.120;2023-04-24T17:57:19;1.10;;;1.10;;
3979;SDS011;2004;52.452;13.120;2023-04-24T18:05:10;2.90;;;1.03;;
3979;SDS011;2004;52.452;13.120;2023-04-24T18:13:02;8.43;;;1.00;;
3979;SDS011;2004;52.452;13.120;2023-04-24T18:20:53;0.60;;;0.60;;
3979;SDS011;2004;52.452;13.120;2023-04-24T18:28:44;0.60;;;0.60;;
3979;SDS011;2004;52.452;13.120;2023-04-24T18:36:35;0.63;;;0.63;;
3979;SDS011;2004;52.452;13.120;2023-04-24T18:44:25;1.10;;;0.70;;
3979;SDS011;2004;52.452;13.120;2023-04-24T18:52:16;1.70;;;0.83;;
3979;SDS011;2004;52.452;13.120;2023-04-24T19:00:06;0.70;;;0.70;;
3979;SDS011;2004;52.452;13.120;2023-04-24T19:07:58;3.27;;;0.97;;
3979;SDS011;2004;52.452;13.120;2023-04-24T19:15:48;0.87;;;0.60;;
3979;SDS011;2004;52.452;13.120;2023-04-24T19:23:40;3.60;;;1.03;;
3979;SDS011;2004;52.452;13.120;2023-04-24T19:31:34;1.73;;;1.63;;
3979;SDS011;2004;52.452;13.120;2023-04-24T19:39:24;3.20;;;1.33;;
3979;SDS011;2004;52.452;13.120;2023-04-24T19:47:15;3.73;;;1.73;;
3979;SDS011;2004;52.452;13.120;2023-04-24T19:55:06;2.70;;;1.47;;
3979;SDS011;2004;52.452;13.120;2023-04-24T20:02:57;6.33;;;1.60;;
3979;SDS011;2004;52.452;13.120;2023-04-24T20:10:48;2.70;;;1.70;;
3979;SDS011;2004;52.452;13.120;2023-04-24T20:18:39;3.90;;;2.17;;
3979;SDS011;2004;52.452;13.120;2023-04-24T20:26:30;7.20;;;1.80;;
3979;SDS011;2004;52.452;13.120;2023-04-24T20:34:21;3.27;;;2.00;;
3979;SDS011;2004;52.452;13.120;2023-04-24T20:42:12;4.60;;;2.33;;
3979;SDS011;2004;52.452;13.120;2023-04-24T20:50:03;1.80;;;1.70;;
3979;SDS011;2004;52.452;13.120;2023-04-24T20:57:55;9.07;;;1.90;;
3979;SDS011;2004;52.452;13.120;2023-04-24T21:05:45;3.93;;;2.40;;
3979;SDS011;2004;52.452;13.120;2023-04-24T21:13:36;11.30;;;3.10;;
3979;SDS011;2004;52.452;13.120;2023-04-24T21:21:27;3.57;;;2.73;;
3979;SDS011;2004;52.452;13.120;2023-04-24T21:29:17;5.90;;;3.10;;
3979;SDS011;2004;52.452;13.120;2023-04-24T21:37:08;5.60;;;3.20;;
3979;SDS011;2004;52.452;13.120;2023-04-24T21:44:59;3.57;;;3.10;;
3979;SDS011;2004;52.452;13.120;2023-04-24T21:52:50;4.80;;;3.37;;
3979;SDS011;2004;52.452;13.120;2023-04-24T22:00:40;9.73;;;3.57;;
3979;SDS011;2004;52.452;13.120;2023-04-24T22:08:31;6.40;;;3.40;;
3979;SDS011;2004;52.452;13.120;2023-04-24T22:16:22;5.83;;;3.97;;
3979;SDS011;2004;52.452;13.120;2023-04-24T22:24:12;4.20;;;3.60;;
3979;SDS011;2004;52.452;13.120;2023-04-24T22:32:03;3.50;;;3.20;;
3979;SDS011;2004;52.452;13.120;2023-04-24T22:39:54;7.13;;;3.33;;
3979;SDS011;2004;52.452;13.120;2023-04-24T22:47:45;3.93;;;2.93;;
3979;SDS011;2004;52.452;13.120;2023-04-24T22:55:36;3.83;;;2.70;;
3979;SDS011;2004;52.452;13.120;2023-04-24T23:03:26;4.60;;;2.80;;
3979;SDS011;2004;52.452;13.120;2023-04-24T23:11:17;6.70;;;4.00;;
3979;SDS011;2004;52.452;13.120;2023-04-24T23:19:08;5.33;;;3.03;;
3979;SDS011;2004;52.452;13.120;2023-04-24T23:26:59;5.17;;;2.77;;
3979;SDS011;2004;52.452;13.120;2023-04-24T23:34:50;8.13;;;2.73;;
3979;SDS011;2004;52.452;13.120;2023-04-24T23:42:41;4.83;;;2.27;;
3979;SDS011;2004;52.452;13.120;2023-04-24T23:50:33;3.50;;;2.17;;
3979;SDS011;2004;52.452;13.120;2023-04-24T23:58:25;7.70;;;2.40;;
